sensor_id;sensor_type;location;lat;lon;timestamp;pressure;altitude;pressure_sealevel;temperature;humidity
6899;BME280;3488;42.616;23.350;2022-08-19T00:01:27;64330.91;;;22.49;59.77
6899;BME280;3488;42.616;23.350;2022-08-19T00:03:55;64329.88;;;22.48;59.25
6899;BME280;3488;42.616;23.350;2022-08-19T00:06:23;64340.88;;;22.59;58.61
6899;BME280;3488;42.616;23.350;2022-08-19T00:08:50;64335.09;;;22.53;57.91
6899;BME280;3488;42.616;23.350;2022-08-19T00:11:18;64348.16;;;22.63;58.07
6899;BME280;3488;42.616;23.350;2022-08-19T00:13:49;64349.22;;;22.64;57.72
6899;BME280;3488;42.616;23.350;2022-08-19T00:16:17;64351.34;;;22.69;57.86
6899;BME280;3488;42.616;23.350;2022-08-19T00:18:51;64339.28;;;22.55;58.34
6899;BME280;3488;42.616;23.350;2022-08-19T00:21:21;64347.13;;;22.65;59.34
6899;BME280;3488;42.616;23.350;2022-08-19T00:23:49;64347.09;;;22.60;59.57
6899;BME280;3488;42.616;23.350;2022-08-19T00:26:17;64324.66;;;22.46;60.20
6899;BME280;3488;42.616;23.350;2022-08-19T00:28:45;64347.63;;;22.60;59.12
6899;BME280;3488;42.616;23.350;2022-08-19T00:31:18;64338.78;;;22.59;58.29
6899;BME280;3488;42.616;23.350;2022-08-19T00:33:48;64340.88;;;22.61;58.43
6899;BME280;3488;42.616;23.350;2022-08-19T00:36:16;64340.81;;;22.54;58.28
6899;BME280;3488;42.616;23.350;2022-08-19T00:38:45;64326.22;;;22.45;58.21
6899;BME280;3488;42.616;23.350;2022-08-19T00:41:13;64341.38;;;22.57;58.69
6899;BME280;3488;42.616;23.350;2022-08-19T00:43:42;64340.31;;;22.56;59.46
6899;BME280;3488;42.616;23.350;2022-08-19T00:46:10;64332.97;;;22.49;60.03
6899;BME280;3488;42.616;23.350;2022-08-19T00:48:38;64335.56;;;22.49;59.72
6899;BME280;3488;42.616;23.350;2022-08-19T00:51:07;64331.44;;;22.50;59.94
6899;BME280;3488;42.616;23.350;2022-08-19T00:53:35;64325.19;;;22.46;59.54
6899;BME280;3488;42.616;23.350;2022-08-19T00:56:02;64325.69;;;22.44;59.67
6899;BME280;3488;42.616;23.350;2022-08-19T00:58:33;64336.06;;;22.47;59.49
6899;BME280;3488;42.616;23.350;2022-08-19T01:01:01;64320.47;;;22.39;60.00
6899;BME280;3488;42.616;23.350;2022-08-19T01:03:29;64314.19;;;22.33;60.15
6899;BME280;3488;42.616;23.350;2022-08-19T01:05:56;64313.16;;;22.32;59.61
6899;BME280;3488;42.616;23.350;2022-08-19T01:08:25;64304.28;;;22.29;60.22
6899;BME280;3488;42.616;23.350;2022-08-19T01:10:54;64304.28;;;22.29;60.99
6899;BME280;3488;42.616;23.350;2022-08-19T01:13:25;64304.22;;;22.21;60.58
6899;BME280;3488;42.616;23.350;2022-08-19T01:15:56;64293.84;;;22.19;60.40
6899;BME280;3488;42.616;23.350;2022-08-19T01:18:25;64301.63;;;22.19;60.41
6899;BME280;3488;42.616;23.350;2022-08-19T01:20:55;64300.63;;;22.25;60.89
6899;BME280;3488;42.616;23.350;2022-08-19T01:23:25;64302.16;;;22.22;61.06
6899;BME280;3488;42.616;23.350;2022-08-19T01:26:09;64292.75;;;22.13;61.95
6899;BME280;3488;42.616;23.350;2022-08-19T01:28:36;64286.50;;;22.07;61.73
6899;BME280;3488;42.616;23.350;2022-08-19T01:31:04;64282.84;;;22.03;61.48
6899;BME280;3488;42.616;23.350;2022-08-19T01:33:31;64279.19;;;22.02;62.14
6899;BME280;3488;42.616;23.350;2022-08-19T01:36:05;64268.22;;;21.92;62.70
6899;BME280;3488;42.616;23.350;2022-08-19T01:38:35;64277.59;;;21.96;63.20
6899;BME280;3488;42.616;23.350;2022-08-19T01:41:03;64264.56;;;21.88;62.72
6899;BME280;3488;42.616;23.350;2022-08-19T01:43:31;64260.91;;;21.85;63.22
6899;BME280;3488;42.616;23.350;2022-08-19T01:45:58;64259.84;;;21.81;63.25
6899;BME280;3488;42.616;23.350;2022-08-19T01:48:26;64257.75;;;21.79;64.20
6899;BME280;3488;42.616;23.350;2022-08-19T01:50:55;64258.75;;;21.75;63.74
6899;BME280;3488;42.616;23.350;2022-08-19T01:53:22;64253.50;;;21.70;65.16
6899;BME280;3488;42.616;23.350;2022-08-19T01:55:50;64243.09;;;21.65;65.10
6899;BME280;3488;42.616;23.350;2022-08-19T01:58:20;64238.41;;;21.60;65.86
6899;BME280;3488;42.616;23.350;2022-08-19T02:00:47;64240.47;;;21.60;65.97
6899;BME280;3488;42.616;23.350;2022-08-19T02:03:15;64235.25;;;21.55;66.81
6899;BME280;3488;42.616;23.350;2022-08-19T02:05:43;64208.16;;;21.39;66.95
6899;BME280;3488;42.616;23.350;2022-08-19T02:08:11;64216.97;;;21.40;66.21
6899;BME280;3488;42.616;23.350;2022-08-19T02:10:40;64206.03;;;21.32;65.92
6899;BME280;3488;42.616;23.350;2022-08-19T02:13:09;64216.97;;;21.40;65.53
6899;BME280;3488;42.616;23.350;2022-08-19T02:15:37;64215.94;;;21.36;67.56
6899;BME280;3488;42.616;23.350;2022-08-19T02:18:04;64212.28;;;21.33;67.38
6899;BME280;3488;42.616;23.350;2022-08-19T02:20:33;64203.94;;;21.27;66.93
6899;BME280;3488;42.616;23.350;2022-08-19T02:23:01;64204.97;;;21.26;67.08
6899;BME280;3488;42.616;23.350;2022-08-19T02:25:28;64202.38;;;21.26;67.28
6899;BME280;3488;42.616;23.350;2022-08-19T02:27:55;64203.94;;;21.27;66.61
6899;BME280;3488;42.616;23.350;2022-08-19T02:30:24;64214.31;;;21.30;67.17
6899;BME280;3488;42.616;23.350;2022-08-19T02:32:51;64203.41;;;21.24;67.64
6899;BME280;3488;42.616;23.350;2022-08-19T02:35:19;64209.13;;;21.27;67.39
6899;BME280;3488;42.616;23.350;2022-08-19T02:37:47;64202.94;;;21.34;66.66
6899;BME280;3488;42.616;23.350;2022-08-19T02:40:32;64210.19;;;21.31;66.92
6899;BME280;3488;42.616;23.350;2022-08-19T02:43:01;64203.91;;;21.25;67.36
6899;BME280;3488;42.616;23.350;2022-08-19T02:45:33;64189.88;;;21.19;68.49
6899;BME280;3488;42.616;23.350;2022-08-19T02:48:00;64198.16;;;21.17;68.34
6899;BME280;3488;42.616;23.350;2022-08-19T02:50:28;64189.31;;;21.13;68.05
6899;BME280;3488;42.616;23.350;2022-08-19T02:52:55;64187.75;;;21.12;69.80
6899;BME280;3488;42.616;23.350;2022-08-19T02:55:23;64183.00;;;21.02;70.31
6899;BME280;3488;42.616;23.350;2022-08-19T02:57:50;64171.53;;;20.96;69.64
6899;BME280;3488;42.616;23.350;2022-08-19T03:00:17;64165.25;;;20.90;70.23
6899;BME280;3488;42.616;23.350;2022-08-19T03:02:46;64163.19;;;20.88;70.24
6899;BME280;3488;42.616;23.350;2022-08-19T03:05:14;64157.44;;;20.83;70.09
6899;BME280;3488;42.616;23.350;2022-08-19T03:07:41;64160.53;;;20.81;70.48
6899;BME280;3488;42.616;23.350;2022-08-19T03:10:09;64154.28;;;20.77;70.73
6899;BME280;3488;42.616;23.350;2022-08-19T03:12:37;64145.44;;;20.71;70.88
6899;BME280;3488;42.616;23.350;2022-08-19T03:15:06;64134.50;;;20.63;72.16
6899;BME280;3488;42.616;23.350;2022-08-19T03:17:33;64130.31;;;20.56;72.67
6899;BME280;3488;42.616;23.350;2022-08-19T03:20:03;64121.94;;;20.48;73.10
6899;BME280;3488;42.616;23.350;2022-08-19T03:22:30;64130.81;;;20.54;73.06
6899;BME280;3488;42.616;23.350;2022-08-19T03:24:57;64119.88;;;20.49;73.74
6899;BME280;3488;42.616;23.350;2022-08-19T03:27:24;64120.41;;;20.49;72.79
6899;BME280;3488;42.616;23.350;2022-08-19T03:29:52;64117.81;;;20.49;73.24
6899;BME280;3488;42.616;23.350;2022-08-19T03:32:19;64112.06;;;20.41;74.11
6899;BME280;3488;42.616;23.350;2022-08-19T03:34:47;64118.28;;;20.45;72.76
6899;BME280;3488;42.616;23.350;2022-08-19T03:37:16;64107.34;;;20.34;73.52
6899;BME280;3488;42.616;23.350;2022-08-19T03:39:43;64108.88;;;20.33;74.61
6899;BME280;3488;42.616;23.350;2022-08-19T03:42:11;64110.44;;;20.35;74.96
6899;BME280;3488;42.616;23.350;2022-08-19T03:44:38;64094.88;;;20.27;74.24
6899;BME280;3488;42.616;23.350;2022-08-19T03:47:07;64103.16;;;20.30;74.83
6899;BME280;3488;42.616;23.350;2022-08-19T03:49:34;64101.06;;;20.28;74.46
6899;BME280;3488;42.616;23.350;2022-08-19T03:52:02;64103.69;;;20.33;74.33
6899;BME280;3488;42.616;23.350;2022-08-19T03:54:34;64109.44;;;20.39;74.41
6899;BME280;3488;42.616;23.350;2022-08-19T03:57:03;64116.22;;;20.45;73.99
6899;BME280;3488;42.616;23.350;2022-08-19T03:59:32;64120.41;;;20.52;74.64
6899;BME280;3488;42.616;23.350;2022-08-19T04:02:02;64129.25;;;20.55;73.64
6899;BME280;3488;42.616;23.350;2022-08-19T04:04:34;64129.81;;;20.58;74.21
6899;BME280;3488;42.616;23.350;2022-08-19T04:07:01;64141.22;;;20.62;74.67
6899;BME280;3488;42.616;23.350;2022-08-19T04:09:28;64143.88;;;20.69;75.09
6899;BME280;3488;42.616;23.350;2022-08-19T04:11:57;64152.19;;;20.75;74.57
6899;BME280;3488;42.616;23.350;2022-08-19T04:14:26;64156.41;;;20.84;73.63
6899;BME280;3488;42.616;23.350;2022-08-19T04:16:55;64166.84;;;20.92;73.70
6899;BME280;3488;42.616;23.350;2022-08-19T04:19:23;64182.00;;;21.06;72.30
6899;BME280;3488;42.616;23.350;2022-08-19T04:21:52;64180.47;;;21.10;72.73
6899;BME280;3488;42.616;23.350;2022-08-19T04:24:20;64196.63;;;21.20;72.34
6899;BME280;3488;42.616;23.350;2022-08-19T04:26:48;64204.97;;;21.28;72.79
6899;BME280;3488;42.616;23.350;2022-08-19T04:29:18;64214.38;;;21.37;72.49
6899;BME280;3488;42.616;23.350;2022-08-19T04:31:48;64225.88;;;21.48;71.44
6899;BME280;3488;42.616;23.350;2022-08-19T04:34:18;64239.94;;;21.59;71.40
6899;BME280;3488;42.616;23.350;2022-08-19T04:36:47;64248.81;;;21.68;71.42
6899;BME280;3488;42.616;23.350;2022-08-19T04:39:18;64259.31;;;21.81;69.67
6899;BME280;3488;42.616;23.350;2022-08-19T04:41:46;64263.00;;;21.89;71.09
6899;BME280;3488;42.616;23.350;2022-08-19T04:44:33;64277.13;;;22.03;70.65
6899;BME280;3488;42.616;23.350;2022-08-19T04:47:01;64293.28;;;22.13;71.09
6899;BME280;3488;42.616;23.350;2022-08-19T04:49:31;64306.31;;;22.23;72.64
6899;BME280;3488;42.616;23.350;2022-08-19T04:51:58;64313.66;;;22.33;70.51
6899;BME280;3488;42.616;23.350;2022-08-19T04:54:25;64320.47;;;22.42;70.18
6899;BME280;3488;42.616;23.350;2022-08-19T04:56:52;64335.09;;;22.53;72.08
6899;BME280;3488;42.616;23.350;2022-08-19T04:59:20;64348.69;;;22.61;71.42
6899;BME280;3488;42.616;23.350;2022-08-19T05:01:49;64351.84;;;22.67;70.02
6899;BME280;3488;42.616;23.350;2022-08-19T05:04:19;64347.69;;;22.68;64.62
6899;BME280;3488;42.616;23.350;2022-08-19T05:06:47;64326.75;;;22.48;65.93
6899;BME280;3488;42.616;23.350;2022-08-19T05:09:15;64316.28;;;22.33;63.98
6899;BME280;3488;42.616;23.350;2022-08-19T05:11:43;64326.22;;;22.45;63.88
6899;BME280;3488;42.616;23.350;2022-08-19T05:14:11;64325.16;;;22.44;62.90
6899;BME280;3488;42.616;23.350;2022-08-19T05:16:40;64325.19;;;22.46;63.70
6899;BME280;3488;42.616;23.350;2022-08-19T05:19:08;64347.19;;;22.72;59.98
6899;BME280;3488;42.616;23.350;2022-08-19T05:21:53;64370.69;;;22.90;58.03
6899;BME280;3488;42.616;23.350;2022-08-19T05:24:38;64369.63;;;22.89;60.65
6899;BME280;3488;42.616;23.350;2022-08-19T05:27:05;64390.53;;;23.07;60.00
6899;BME280;3488;42.616;23.350;2022-08-19T05:29:33;64411.47;;;23.27;59.68
6899;BME280;3488;42.616;23.350;2022-08-19T05:32:03;64436.06;;;23.50;60.84
6899;BME280;3488;42.616;23.350;2022-08-19T05:34:32;64452.28;;;23.63;60.70
6899;BME280;3488;42.616;23.350;2022-08-19T05:37:02;64454.91;;;23.68;59.20
6899;BME280;3488;42.616;23.350;2022-08-19T05:39:32;64437.13;;;23.51;60.18
6899;BME280;3488;42.616;23.350;2022-08-19T05:42:01;64423.00;;;23.38;60.00
6899;BME280;3488;42.616;23.350;2022-08-19T05:44:30;64424.56;;;23.42;59.72
6899;BME280;3488;42.616;23.350;2022-08-19T05:47:00;64424.03;;;23.39;60.26
6899;BME280;3488;42.616;23.350;2022-08-19T05:49:28;64428.22;;;23.43;61.16
6899;BME280;3488;42.616;23.350;2022-08-19T05:51:57;64442.91;;;23.62;60.71
6899;BME280;3488;42.616;23.350;2022-08-19T05:54:25;64452.28;;;23.68;61.38
6899;BME280;3488;42.616;23.350;2022-08-19T05:56:53;64462.75;;;23.76;61.10
6899;BME280;3488;42.616;23.350;2022-08-19T05:59:21;64478.47;;;23.93;60.38
6899;BME280;3488;42.616;23.350;2022-08-19T06:01:50;64486.84;;;24.02;60.17
6899;BME280;3488;42.616;23.350;2022-08-19T06:04:20;64492.06;;;24.04;60.51
6899;BME280;3488;42.616;23.350;2022-08-19T06:37:07;64603.06;;;25.08;58.60
6899;BME280;3488;42.616;23.350;2022-08-19T06:39:37;64611.50;;;25.24;58.12
6899;BME280;3488;42.616;23.350;2022-08-19T06:42:05;64620.38;;;25.30;56.25
6899;BME280;3488;42.616;23.350;2022-08-19T06:44:36;64640.28;;;25.46;56.88
6899;BME280;3488;42.616;23.350;2022-08-19T06:47:06;64655.50;;;25.61;56.23
6899;BME280;3488;42.616;23.350;2022-08-19T06:49:35;64654.44;;;25.57;57.03
6899;BME280;3488;42.616;23.350;2022-08-19T06:52:03;64650.78;;;25.56;56.44
6899;BME280;3488;42.616;23.350;2022-08-19T06:54:32;64659.69;;;25.62;57.44
6899;BME280;3488;42.616;23.350;2022-08-19T06:57:00;64664.41;;;25.72;55.07
6899;BME280;3488;42.616;23.350;2022-08-19T06:59:29;64648.69;;;25.59;54.89
6899;BME280;3488;42.616;23.350;2022-08-19T07:01:59;64641.34;;;25.50;57.39
6899;BME280;3488;42.616;23.350;2022-08-19T07:04:28;64653.41;;;25.59;55.80
6899;BME280;3488;42.616;23.350;2022-08-19T07:06:58;64667.00;;;25.72;56.15
6899;BME280;3488;42.616;23.350;2022-08-19T07:09:26;64687.44;;;25.89;54.95
6899;BME280;3488;42.616;23.350;2022-08-19T07:11:56;64703.19;;;26.04;54.08
6899;BME280;3488;42.616;23.350;2022-08-19T07:14:25;64707.41;;;26.10;52.71
6899;BME280;3488;42.616;23.350;2022-08-19T07:16:55;64714.22;;;26.17;52.55
6899;BME280;3488;42.616;23.350;2022-08-19T07:19:24;64715.25;;;26.15;52.81
6899;BME280;3488;42.616;23.350;2022-08-19T07:21:54;64719.44;;;26.22;53.66
6899;BME280;3488;42.616;23.350;2022-08-19T07:24:22;64728.38;;;26.33;52.45
6899;BME280;3488;42.616;23.350;2022-08-19T07:26:51;64733.59;;;26.33;53.61
6899;BME280;3488;42.616;23.350;2022-08-19T07:29:22;64758.78;;;26.62;53.40
6899;BME280;3488;42.616;23.350;2022-08-19T07:31:50;64781.88;;;26.84;52.30
6899;BME280;3488;42.616;23.350;2022-08-19T07:34:18;64796.53;;;26.96;52.02
6899;BME280;3488;42.616;23.350;2022-08-19T07:36:45;64808.59;;;27.05;51.42
6899;BME280;3488;42.616;23.350;2022-08-19T07:39:18;64825.38;;;27.23;50.38
6899;BME280;3488;42.616;23.350;2022-08-19T07:41:46;64844.31;;;27.44;50.24
6899;BME280;3488;42.616;23.350;2022-08-19T07:44:15;64860.06;;;27.59;49.55
6899;BME280;3488;42.616;23.350;2022-08-19T07:46:46;64870.53;;;27.67;49.19
6899;BME280;3488;42.616;23.350;2022-08-19T07:49:14;64878.94;;;27.75;49.15
6899;BME280;3488;42.616;23.350;2022-08-19T07:51:45;64894.69;;;27.92;49.09
6899;BME280;3488;42.616;23.350;2022-08-19T07:54:13;64886.28;;;27.82;49.82
6899;BME280;3488;42.616;23.350;2022-08-19T07:56:40;64890.47;;;27.83;48.76
6899;BME280;3488;42.616;23.350;2022-08-19T07:59:07;64899.41;;;27.94;49.21
6899;BME280;3488;42.616;23.350;2022-08-19T08:01:34;64898.91;;;27.94;49.03
6899;BME280;3488;42.616;23.350;2022-08-19T08:04:03;64893.09;;;27.88;49.26
6899;BME280;3488;42.616;23.350;2022-08-19T08:06:48;64902.00;;;27.89;48.43
6899;BME280;3488;42.616;23.350;2022-08-19T08:09:35;64924.09;;;28.18;47.57
6899;BME280;3488;42.616;23.350;2022-08-19T08:12:05;64944.56;;;28.35;47.29
6899;BME280;3488;42.616;23.350;2022-08-19T08:14:35;64956.13;;;28.49;46.65
6899;BME280;3488;42.616;23.350;2022-08-19T08:17:05;64956.13;;;28.51;45.70
6899;BME280;3488;42.616;23.350;2022-08-19T08:30:08;64971.88;;;28.64;44.03
6899;BME280;3488;42.616;23.350;2022-08-19T08:32:43;64987.13;;;28.76;43.15
6899;BME280;3488;42.616;23.350;2022-08-19T08:35:31;65009.69;;;29.05;41.79
6899;BME280;3488;42.616;23.350;2022-08-19T08:38:03;65037.03;;;29.21;40.96
6899;BME280;3488;42.616;23.350;2022-08-19T08:40:42;64984.50;;;28.73;40.46
6899;BME280;3488;42.616;23.350;2022-08-19T08:43:22;64992.38;;;28.81;40.39
6899;BME280;3488;42.616;23.350;2022-08-19T08:46:03;65001.28;;;28.94;39.97
6899;BME280;3488;42.616;23.350;2022-08-19T08:48:39;65024.44;;;29.19;40.15
6899;BME280;3488;42.616;23.350;2022-08-19T08:51:20;65042.28;;;29.26;40.49
6899;BME280;3488;42.616;23.350;2022-08-19T08:53:57;65060.69;;;29.48;40.33
6899;BME280;3488;42.616;23.350;2022-08-19T08:59:15;65079.59;;;29.62;39.95
6899;BME280;3488;42.616;23.350;2022-08-19T09:05:12;65108.00;;;29.91;39.21
6899;BME280;3488;42.616;23.350;2022-08-19T09:07:49;65135.84;;;30.18;36.82
6899;BME280;3488;42.616;23.350;2022-08-19T09:23:16;65204.78;;;30.86;35.02
6899;BME280;3488;42.616;23.350;2022-08-19T09:25:43;65219.50;;;31.00;36.13
6899;BME280;3488;42.616;23.350;2022-08-19T09:28:10;65243.19;;;31.18;33.39
6899;BME280;3488;42.616;23.350;2022-08-19T09:30:40;65223.72;;;31.02;33.85
6899;BME280;3488;42.616;23.350;2022-08-19T09:33:07;65233.72;;;31.11;33.76
6899;BME280;3488;42.616;23.350;2022-08-19T09:35:35;65259.00;;;31.35;34.92
6899;BME280;3488;42.616;23.350;2022-08-19T09:40:33;65286.34;;;31.66;31.87
6899;BME280;3488;42.616;23.350;2022-08-19T09:43:00;65308.97;;;31.81;31.67
6899;BME280;3488;42.616;23.350;2022-08-19T09:45:28;65288.97;;;31.69;32.32
6899;BME280;3488;42.616;23.350;2022-08-19T09:47:56;65274.78;;;31.50;31.53
6899;BME280;3488;42.616;23.350;2022-08-19T09:50:24;65251.63;;;31.33;32.26
6899;BME280;3488;42.616;23.350;2022-08-19T09:52:51;65253.19;;;31.35;32.07
6899;BME280;3488;42.616;23.350;2022-08-19T09:55:22;65235.28;;;31.10;30.97
6899;BME280;3488;42.616;23.350;2022-08-19T09:57:53;65225.81;;;31.01;31.77
6899;BME280;3488;42.616;23.350;2022-08-19T10:00:20;65220.03;;;30.96;32.39
6899;BME280;3488;42.616;23.350;2022-08-19T10:02:47;65242.13;;;31.19;32.38
6899;BME280;3488;42.616;23.350;2022-08-19T10:05:14;65237.41;;;31.15;30.58
6899;BME280;3488;42.616;23.350;2022-08-19T10:07:58;65268.47;;;31.42;30.49
6899;BME280;3488;42.616;23.350;2022-08-19T10:10:26;65273.72;;;31.47;28.75
6899;BME280;3488;42.616;23.350;2022-08-19T10:12:54;65270.03;;;31.48;29.14
6899;BME280;3488;42.616;23.350;2022-08-19T10:15:21;65277.91;;;31.58;30.38
6899;BME280;3488;42.616;23.350;2022-08-19T10:17:48;65273.72;;;31.52;30.76
6899;BME280;3488;42.616;23.350;2022-08-19T10:20:15;65299.50;;;31.77;30.07
6899;BME280;3488;42.616;23.350;2022-08-19T10:22:43;65274.75;;;31.55;29.96
6899;BME280;3488;42.616;23.350;2022-08-19T10:43:09;65353.72;;;32.28;29.96
6899;BME280;3488;42.616;23.350;2022-08-19T10:45:39;65336.91;;;32.10;29.47
6899;BME280;3488;42.616;23.350;2022-08-19T10:48:11;65300.53;;;31.78;29.75
6899;BME280;3488;42.616;23.350;2022-08-19T10:50:55;65324.78;;;31.98;30.27
6899;BME280;3488;42.616;23.350;2022-08-19T10:56:21;65306.88;;;31.79;29.34
6899;BME280;3488;42.616;23.350;2022-08-19T10:59:37;65323.22;;;31.94;28.86
6899;BME280;3488;42.616;23.350;2022-08-19T11:02:16;65344.25;;;32.19;29.24
6899;BME280;3488;42.616;23.350;2022-08-19T11:07:18;65384.28;;;32.57;29.42
6899;BME280;3488;42.616;23.350;2022-08-19T11:10:03;65346.91;;;32.22;28.64
6899;BME280;3488;42.616;23.350;2022-08-19T11:12:36;65375.88;;;32.47;29.88
6899;BME280;3488;42.616;23.350;2022-08-19T11:15:24;65352.16;;;32.27;30.33
6899;BME280;3488;42.616;23.350;2022-08-19T11:18:01;65345.81;;;32.21;29.29
6899;BME280;3488;42.616;23.350;2022-08-19T11:20:35;65322.69;;;31.94;29.38
6899;BME280;3488;42.616;23.350;2022-08-19T11:23:09;65317.94;;;31.94;29.76
6899;BME280;3488;42.616;23.350;2022-08-19T11:25:40;65301.59;;;31.79;29.53
6899;BME280;3488;42.616;23.350;2022-08-19T11:28:25;65327.41;;;32.06;29.50
6899;BME280;3488;42.616;23.350;2022-08-19T11:39:15;65395.34;;;32.68;29.14
6899;BME280;3488;42.616;23.350;2022-08-19T11:41:43;65411.13;;;32.83;29.42
6899;BME280;3488;42.616;23.350;2022-08-19T11:44:10;65413.25;;;32.80;28.28
6899;BME280;3488;42.616;23.350;2022-08-19T11:46:40;65389.56;;;32.62;28.91
6899;BME280;3488;42.616;23.350;2022-08-19T11:49:12;65395.31;;;32.70;29.76
6899;BME280;3488;42.616;23.350;2022-08-19T11:51:39;65427.47;;;32.99;28.74
6899;BME280;3488;42.616;23.350;2022-08-19T11:54:07;65447.50;;;33.18;28.45
6899;BME280;3488;42.616;23.350;2022-08-19T11:56:37;65467.00;;;33.39;28.44
6899;BME280;3488;42.616;23.350;2022-08-19T11:59:04;65457.53;;;33.27;28.04
6899;BME280;3488;42.616;23.350;2022-08-19T12:01:31;65442.25;;;33.15;28.10
6899;BME280;3488;42.616;23.350;2022-08-19T12:03:58;65470.69;;;33.35;28.74
6899;BME280;3488;42.616;23.350;2022-08-19T12:06:27;65489.16;;;33.52;28.11
6899;BME280;3488;42.616;23.350;2022-08-19T12:08:55;65477.03;;;33.43;28.21
6899;BME280;3488;42.616;23.350;2022-08-19T12:11:23;65471.75;;;33.38;28.23
6899;BME280;3488;42.616;23.350;2022-08-19T12:13:52;65481.22;;;33.55;28.48
6899;BME280;3488;42.616;23.350;2022-08-19T12:16:21;65520.22;;;33.84;29.05
6899;BME280;3488;42.616;23.350;2022-08-19T12:18:49;65467.53;;;33.44;28.57
6899;BME280;3488;42.616;23.350;2022-08-19T12:21:19;65500.75;;;33.68;28.46
6899;BME280;3488;42.616;23.350;2022-08-19T12:23:47;65453.84;;;33.24;28.34
6899;BME280;3488;42.616;23.350;2022-08-19T12:26:16;65417.47;;;32.92;28.58
6899;BME280;3488;42.616;23.350;2022-08-19T12:28:43;65447.50;;;33.18;28.34
6899;BME280;3488;42.616;23.350;2022-08-19T12:31:12;65480.75;;;33.44;28.27
6899;BME280;3488;42.616;23.350;2022-08-19T12:33:39;65499.69;;;33.62;27.84
6899;BME280;3488;42.616;23.350;2022-08-19T12:36:10;65469.63;;;33.44;28.39
6899;BME280;3488;42.616;23.350;2022-08-19T12:38:38;65474.91;;;33.39;28.57
6899;BME280;3488;42.616;23.350;2022-08-19T12:41:08;65511.28;;;33.78;27.88
6899;BME280;3488;42.616;23.350;2022-08-19T12:43:36;65511.81;;;33.76;28.40
6899;BME280;3488;42.616;23.350;2022-08-19T12:46:04;65505.50;;;33.68;28.36
6899;BME280;3488;42.616;23.350;2022-08-19T12:48:33;65437.53;;;33.01;28.50
6899;BME280;3488;42.616;23.350;2022-08-19T12:51:01;65422.75;;;32.94;28.81
6899;BME280;3488;42.616;23.350;2022-08-19T12:53:32;65447.50;;;33.18;29.14
6899;BME280;3488;42.616;23.350;2022-08-19T12:55:59;65492.84;;;33.61;28.48
6899;BME280;3488;42.616;23.350;2022-08-19T12:58:26;65479.13;;;33.40;28.80
6899;BME280;3488;42.616;23.350;2022-08-19T13:00:53;65462.25;;;33.34;28.08
6899;BME280;3488;42.616;23.350;2022-08-19T13:03:21;65474.38;;;33.43;29.03
6899;BME280;3488;42.616;23.350;2022-08-19T13:05:56;65538.19;;;33.99;27.96
6899;BME280;3488;42.616;23.350;2022-08-19T13:08:23;65546.09;;;34.12;27.20
6899;BME280;3488;42.616;23.350;2022-08-19T13:10:50;65602.00;;;34.60;26.47
6899;BME280;3488;42.616;23.350;2022-08-19T13:13:17;65612.53;;;34.77;26.48
6899;BME280;3488;42.616;23.350;2022-08-19T13:15:44;65634.69;;;34.91;26.06
6899;BME280;3488;42.616;23.350;2022-08-19T13:18:13;65646.84;;;35.05;27.63
6899;BME280;3488;42.616;23.350;2022-08-19T13:20:41;65627.81;;;34.84;27.08
6899;BME280;3488;42.616;23.350;2022-08-19T13:23:10;65615.69;;;34.80;26.93
6899;BME280;3488;42.616;23.350;2022-08-19T13:25:37;65653.66;;;35.19;25.94
6899;BME280;3488;42.616;23.350;2022-08-19T13:28:05;65683.25;;;35.40;26.24
6899;BME280;3488;42.616;23.350;2022-08-19T13:30:32;65744.47;;;35.95;25.83
6899;BME280;3488;42.616;23.350;2022-08-19T13:33:17;65794.63;;;36.46;24.88
6899;BME280;3488;42.616;23.350;2022-08-19T13:35:47;65828.41;;;36.78;24.22
6899;BME280;3488;42.616;23.350;2022-08-19T13:38:18;65824.19;;;36.76;24.61
6899;BME280;3488;42.616;23.350;2022-08-19T13:40:46;65769.28;;;36.24;24.56
6899;BME280;3488;42.616;23.350;2022-08-19T13:43:15;65758.19;;;36.11;24.11
6899;BME280;3488;42.616;23.350;2022-08-19T13:45:43;65748.16;;;36.04;25.09
6899;BME280;3488;42.616;23.350;2022-08-19T13:48:10;65752.41;;;36.03;25.75
6899;BME280;3488;42.616;23.350;2022-08-19T13:50:40;65783.00;;;36.40;24.63
6899;BME280;3488;42.616;23.350;2022-08-19T13:53:08;65782.50;;;36.34;24.58
6899;BME280;3488;42.616;23.350;2022-08-19T13:55:37;65814.69;;;36.65;24.38
6899;BME280;3488;42.616;23.350;2022-08-19T13:58:04;65847.44;;;36.96;23.72
6899;BME280;3488;42.616;23.350;2022-08-19T14:00:33;65877.03;;;37.24;24.05
6899;BME280;3488;42.616;23.350;2022-08-19T14:03:02;65897.09;;;37.46;23.55
6899;BME280;3488;42.616;23.350;2022-08-19T14:05:30;65875.44;;;37.23;24.01
6899;BME280;3488;42.616;23.350;2022-08-19T14:07:57;65872.22;;;37.25;24.59
6899;BME280;3488;42.616;23.350;2022-08-19T14:10:26;65880.75;;;37.28;26.01
6899;BME280;3488;42.616;23.350;2022-08-19T14:12:56;65872.81;;;37.20;25.19
6899;BME280;3488;42.616;23.350;2022-08-19T14:15:24;65902.91;;;37.51;25.80
6899;BME280;3488;42.616;23.350;2022-08-19T14:17:52;65927.25;;;37.72;25.31
6899;BME280;3488;42.616;23.350;2022-08-19T14:20:20;65937.81;;;37.84;25.05
6899;BME280;3488;42.616;23.350;2022-08-19T14:22:47;65948.91;;;37.92;24.63
6899;BME280;3488;42.616;23.350;2022-08-19T14:25:17;65948.41;;;37.89;24.55
6899;BME280;3488;42.616;23.350;2022-08-19T14:27:45;65934.66;;;37.79;25.06
6899;BME280;3488;42.616;23.350;2022-08-19T14:30:17;65926.72;;;37.69;25.27
6899;BME280;3488;42.616;23.350;2022-08-19T14:32:44;65927.25;;;37.72;24.65
6899;BME280;3488;42.616;23.350;2022-08-19T14:35:13;65912.44;;;37.60;24.30
6899;BME280;3488;42.616;23.350;2022-08-19T14:37:44;65868.56;;;37.16;24.58
6899;BME280;3488;42.616;23.350;2022-08-19T14:40:13;65892.91;;;37.37;25.80
6899;BME280;3488;42.616;23.350;2022-08-19T14:42:41;65892.91;;;37.39;25.04
6899;BME280;3488;42.616;23.350;2022-08-19T14:45:09;65901.84;;;37.50;25.48
6899;BME280;3488;42.616;23.350;2022-08-19T14:47:39;65921.44;;;37.61;25.82
6899;BME280;3488;42.616;23.350;2022-08-19T14:50:08;65955.22;;;38.01;25.14
6899;BME280;3488;42.616;23.350;2022-08-19T14:52:36;65951.03;;;37.92;25.71
6899;BME280;3488;42.616;23.350;2022-08-19T14:55:05;65894.47;;;37.41;26.05
6899;BME280;3488;42.616;23.350;2022-08-19T14:57:32;65852.72;;;37.01;26.14